East Charleston, VT (05833)

9:35 AM EST on February 10, 2016 (GMT -0500)
Echo Lake | | Change Station
CLOSE
Current Station
Personal Weather Station
Location: Charleston, VT
Elevation: 1247 ft
Nearby Weather Stations

Elev 1247 ft 44.86 °N, 72.00 °W | Updated 11 minutes ago

Overcast
Overcast
25.3 °F
Feels Like 25 °F
N
0.0
Wind Variable Wind from ESE

Today
High -- | Low -- °F
--% Chance of Precip.
Yesterday
High -- | Low -- °F
Precip. -- in
Pressure 29.50 in
Visibility 10.0 miles
Clouds Scattered Clouds 2000 ft
Mostly Cloudy 2700 ft
Overcast 4100 ft
Windchill 25 °F
Dew Point 22 °F
Humidity 88%
Rainfall 0.00 in
Snow Depth Not available.
6:56 AM 5:08 PM
Waxing Crescent, 5% visible
METAR KEFK 101415Z AUTO 19005KT 10SM -SN SCT020 BKN027 OVC041 M04/M07 A2950 RMK AO2 T10451067
Pressure 29.50 in
Visibility 10.0 miles
Clouds Scattered Clouds 2000 ft
Mostly Cloudy 2700 ft
Overcast 4100 ft
Windchill 25 °F
Dew Point 22 °F
Humidity 88%
Rainfall 0.00 in
Snow Depth Not available.
6:56 AM 5:08 PM
Waxing Crescent, 5% visible
METAR KEFK 101415Z AUTO 19005KT 10SM -SN SCT020 BKN027 OVC041 M04/M07 A2950 RMK AO2 T10451067

10-Day Weather Forecast

Almanac

Astronomy

Feb. 10, 2016 Rise Set
Actual Time
Civil Twilight
Nautical Twilight
Astronomical Twilight
Moon
Length of Visible Light
Length of Day
Tomorrow will be .
, % of the Moon is Illuminated

Today's Extremes

State Highs State Lows

Community

WunderPhotos

Upload Photos

1,891,855 photos uploaded!

WunderBlog® & News

Nearby

Air Quality

  Air Quality AQ Index Pollutant
Not available.

Snow Depth

Station Depth Elevation

Earthquake Activity

City Distance Mag. Time & Date
Minimum magnitude displayed is 2.5.

Coastal Water Temperatures

Place Temperature

Stations

Nearby Weather Stations

Station Location Temp. Windchill Dew Point Humidity Wind Precip. Elev Updated Type
                   

Watches & Warnings

There are currently no watches in effect.